Map

Track Data

SID SEASON NUMBER BASIN SUBBASIN NAME ISO_TIME NATURE LAT LON WMO_WIND WMO_PRES WMO_AGENCY TRACK_TYPE DIST2LAND LANDFALL IFLAG USA_AGENCY USA_ATCF_ID USA_LAT USA_LON USA_RECORD USA_STATUS USA_WIND USA_PRES USA_SSHS USA_R34_NE USA_R34_SE USA_R34_SW USA_R34_NW USA_R50_NE USA_R50_SE USA_R50_SW USA_R50_NW USA_R64_NE USA_R64_SE USA_R64_SW USA_R64_NW USA_POCI USA_ROCI USA_RMW USA_EYE TOKYO_LAT TOKYO_LON TOKYO_GRADE TOKYO_WIND TOKYO_PRES TOKYO_R50_DIR TOKYO_R50_LONG TOKYO_R50_SHORT TOKYO_R30_DIR TOKYO_R30_LONG TOKYO_R30_SHORT TOKYO_LAND CMA_LAT CMA_LON CMA_CAT CMA_WIND CMA_PRES HKO_LAT HKO_LON HKO_CAT HKO_WIND HKO_PRES NEWDELHI_LAT NEWDELHI_LON NEWDELHI_GRADE NEWDELHI_WIND NEWDELHI_PRES NEWDELHI_CI NEWDELHI_DP NEWDELHI_POCI REUNION_LAT REUNION_LON REUNION_TYPE REUNION_WIND REUNION_PRES REUNION_TNUM REUNION_CI REUNION_RMW REUNION_R34_NE REUNION_R34_SE REUNION_R34_SW REUNION_R34_NW REUNION_R50_NE REUNION_R50_SE REUNION_R50_SW REUNION_R50_NW REUNION_R64_NE REUNION_R64_SE REUNION_R64_SW REUNION_R64_NW BOM_LAT BOM_LON BOM_TYPE BOM_WIND BOM_PRES BOM_TNUM BOM_CI BOM_RMW BOM_R34_NE BOM_R34_SE BOM_R34_SW BOM_R34_NW BOM_R50_NE BOM_R50_SE BOM_R50_SW BOM_R50_NW BOM_R64_NE BOM_R64_SE BOM_R64_SW BOM_R64_NW BOM_ROCI BOM_POCI BOM_EYE BOM_POS_METHOD BOM_PRES_METHOD NADI_LAT NADI_LON NADI_CAT NADI_WIND NADI_PRES WELLINGTON_LAT WELLINGTON_LON WELLINGTON_WIND WELLINGTON_PRES DS824_LAT DS824_LON DS824_STAGE DS824_WIND DS824_PRES TD9636_LAT TD9636_LON TD9636_STAGE TD9636_WIND TD9636_PRES TD9635_LAT TD9635_LON TD9635_WIND TD9635_PRES TD9635_ROCI NEUMANN_LAT NEUMANN_LON NEUMANN_CLASS NEUMANN_WIND NEUMANN_PRES MLC_LAT MLC_LON MLC_CLASS MLC_WIND MLC_PRES USA_GUST BOM_GUST BOM_GUST_PER REUNION_GUST REUNION_GUST_PER USA_SEAHGT USA_SEARAD_NE USA_SEARAD_SE USA_SEARAD_SW USA_SEARAD_NW STORM_SPEED STORM_DIR
1970306N15252 1970 142 EP MM SELMA 1970-11-01 12:00:00 TS 14.5000 -107.700 25 hurdat_epa main 609 609 O________OO___ hurdat_epa EP181970 14.5000 -107.700 TD 25 -1 14.5000 -107.700 TC 25 14.5000 -107.700 1 6 270
1970306N15252 1970 142 EP MM SELMA 1970-11-01 15:00:00 TS 14.4980 -107.999 main 626 626 P________PP___ EP181970 14.4901 -108.003 TD 27 -1 14.4901 -108.003 TC 27 14.5299 -107.986 1 6 271
1970306N15252 1970 142 EP MM SELMA 1970-11-01 18:00:00 TS 14.5115 -108.295 30 hurdat_epa main 644 644 O________OP___ hurdat_epa EP181970 14.5000 -108.300 TD 30 -1 14.5000 -108.300 TC 30 14.5577 -108.277 1 6 275
1970306N15252 1970 142 EP MM SELMA 1970-11-01 21:00:00 TS 14.5503 -108.590 main 654 654 P________PP___ EP181970 14.5424 -108.592 TD 30 -1 14.5424 -108.592 TC 30 14.5816 -108.580 1 6 279
1970306N15252 1970 142 EP MM SELMA 1970-11-02 00:00:00 TS 14.6000 -108.900 30 hurdat_epa main 674 674 O________OO___ hurdat_epa EP181970 14.6000 -108.900 TD 30 -1 14.6000 -108.900 TC 30 14.6000 -108.900 1 6 278
1970306N15252 1970 142 EP MM SELMA 1970-11-02 03:00:00 TS 14.6429 -109.242 main 695 694 P________PP___ EP181970 14.6500 -109.243 TD 30 -1 14.6500 -109.243 TC 30 14.6144 -109.240 1 7 277
1970306N15252 1970 142 EP MM SELMA 1970-11-02 06:00:00 TS 14.6880 -109.599 30 hurdat_epa main 717 717 O________OP___ hurdat_epa EP181970 14.7000 -109.600 TD 30 -1 14.7000 -109.600 TC 30 14.6400 -109.593 1 7 277
1970306N15252 1970 142 EP MM SELMA 1970-11-02 09:00:00 TS 14.7271 -109.950 main 740 740 P________PP___ EP181970 14.7349 -109.950 TD 30 -1 14.7349 -109.950 TC 30 14.6956 -109.949 1 7 279
1970306N15252 1970 142 EP MM SELMA 1970-11-02 12:00:00 TS 14.8000 -110.300 30 hurdat_epa main 763 763 O________OO___ hurdat_epa EP181970 14.8000 -110.300 TD 30 -1 14.8000 -110.300 TC 30 14.8000 -110.300 2 7 285
1970306N15252 1970 142 EP MM SELMA 1970-11-02 15:00:00 TS 14.9168 -110.665 main 785 777 P________PP___ EP181970 14.9125 -110.658 TD 32 -1 14.9125 -110.658 TC 32 14.9343 -110.693 2 8 294
1970306N15252 1970 142 EP MM SELMA 1970-11-02 18:00:00 TS 15.1046 -111.014 35 997 hurdat_epa main 794 794 O________OP___ hurdat_epa EP181970 15.1000 -111.000 TS 35 997 0 15.1000 -111.000 TC 35 997 15.1229 -111.069 2 8 303
1970306N15252 1970 142 EP MM SELMA 1970-11-02 21:00:00 TS 15.3530 -111.353 main 805 801 P________PP___ EP181970 15.3475 -111.345 TS 37 0 15.3475 -111.345 TC 37 15.3749 -111.386 2 8 317
1970306N15252 1970 142 EP MM SELMA 1970-11-03 00:00:00 TS 15.7000 -111.600 40 hurdat_epa main 803 781 O________OO___ hurdat_epa EP181970 15.7000 -111.600 TS 40 0 15.7000 -111.600 TC 40 15.7000 -111.600 2 9 337
1970306N15252 1970 142 EP MM SELMA 1970-11-03 03:00:00 TS 16.1706 -111.711 main 770 715 P________PP___ EP181970 16.1774 -111.717 TS 40 0 16.1774 -111.717 TC 40 16.1434 -111.683 2 10 355
1970306N15252 1970 142 EP MM SELMA 1970-11-03 06:00:00 TS 16.6899 -111.692 40 hurdat_epa main 715 659 O________OP___ hurdat_epa EP181970 16.7000 -111.700 TS 40 0 16.7000 -111.700 TC 40 16.6496 -111.658 2 10 7
1970306N15252 1970 142 EP MM SELMA 1970-11-03 09:00:00 TS 17.1812 -111.581 main 659 610 P________PP___ EP181970 17.1875 -111.588 TS 42 0 17.1875 -111.588 TC 42 17.1560 -111.555 2 10 17
1970306N15252 1970 142 EP MM SELMA 1970-11-03 12:00:00 TS 17.6000 -111.400 45 hurdat_epa main 610 572 O________OO___ hurdat_epa EP181970 17.6000 -111.400 TS 45 0 17.6000 -111.400 TC 45 17.6000 -111.400 2 8 26
1970306N15252 1970 142 EP MM SELMA 1970-11-03 15:00:00 TS 17.8885 -111.218 main 572 546 P________PP___ EP181970 17.8875 -111.207 TS 52 0 17.8875 -111.207 TC 52 17.8927 -111.259 2 6 36
1970306N15252 1970 142 EP MM SELMA 1970-11-03 18:00:00 TS 18.1035 -111.015 60 995 hurdat_epa main 546 521 O________OP___ hurdat_epa EP181970 18.1000 -111.000 TS 60 995 0 18.1000 -111.000 TC 60 995 18.1173 -111.075 2 6 42
1970306N15252 1970 142 EP MM SELMA 1970-11-03 21:00:00 TS 18.3016 -110.822 main 521 496 P________PP___ EP181970 18.2999 -110.815 TS 60 0 18.2999 -110.815 TC 60 18.3083 -110.853 2 6 45
1970306N15252 1970 142 EP MM SELMA 1970-11-04 00:00:00 TS 18.5000 -110.600 60 hurdat_epa main 496 470 O________OO___ hurdat_epa EP181970 18.5000 -110.600 TS 60 0 18.5000 -110.600 TC 60 18.5000 -110.600 2 7 48
1970306N15252 1970 142 EP MM SELMA 1970-11-04 03:00:00 TS 18.7426 -110.313 main 470 436 P________PP___ EP181970 18.7425 -110.315 TS 60 0 18.7425 -110.315 TC 60 18.7431 -110.305 2 8 49
1970306N15252 1970 142 EP MM SELMA 1970-11-04 06:00:00 TS 18.9986 -109.997 60 hurdat_epa main 436 413 O________OP___ hurdat_epa EP181970 19.0000 -110.000 TS 60 0 19.0000 -110.000 TC 60 18.9929 -109.985 2 8 49
1970306N15252 1970 142 EP MM SELMA 1970-11-04 09:00:00 TS 19.2492 -109.689 main 413 382 P________PP___ EP181970 19.2500 -109.692 TS 60 0 19.2500 -109.692 TC 60 19.2462 -109.673 2 8 48
1970306N15252 1970 142 EP MM SELMA 1970-11-04 12:00:00 TS 19.5000 -109.400 60 hurdat_epa main 382 363 O________OO___ hurdat_epa EP181970 19.5000 -109.400 TS 60 0 19.5000 -109.400 TC 60 19.5000 -109.400 2 7 47
1970306N15252 1970 142 EP MM SELMA 1970-11-04 15:00:00 TS 19.7557 -109.118 main 354 336 P________PP___ EP181970 19.7500 -109.113 TS 55 0 19.7500 -109.113 TC 55 19.7782 -109.142 2 7 42
1970306N15252 1970 142 EP MM SELMA 1970-11-04 18:00:00 TS 20.0104 -108.907 50 hurdat_epa main 336 308 O________OP___ hurdat_epa EP181970 20.0000 -108.900 TS 50 0 20.0000 -108.900 TC 50 20.0521 -108.935 2 6 31
1970306N15252 1970 142 EP MM SELMA 1970-11-04 21:00:00 TS 20.2719 -108.788 main 308 287 P________PP___ EP181970 20.2649 -108.782 TS 47 0 20.2649 -108.782 TC 47 20.3000 -108.811 2 5 11
1970306N15252 1970 142 EP MM SELMA 1970-11-05 00:00:00 TS 20.5000 -108.800 45 hurdat_epa main 287 262 O________OO___ hurdat_epa EP181970 20.5000 -108.800 TS 45 0 20.5000 -108.800 TC 45 20.5000 -108.800 2 4 340
1970306N15252 1970 142 EP MM SELMA 1970-11-05 03:00:00 TS 20.6783 -108.944 main 262 242 P________PP___ EP181970 20.6875 -108.947 TS 45 0 20.6875 -108.947 TC 45 20.6417 -108.930 2 5 308
1970306N15252 1970 142 EP MM SELMA 1970-11-05 06:00:00 TS 20.7865 -109.194 45 hurdat_epa main 242 236 O________OP___ hurdat_epa EP181970 20.8000 -109.200 TS 45 0 20.8000 -109.200 TC 45 20.7327 -109.172 2 5 286
1970306N15252 1970 142 EP MM SELMA 1970-11-05 09:00:00 TS 20.8205 -109.484 main 236 234 P________PP___ EP181970 20.8300 -109.485 TS 45 0 20.8300 -109.485 TC 45 20.7824 -109.477 2 6 271
1970306N15252 1970 142 EP MM SELMA 1970-11-05 12:00:00 TS 20.8000 -109.800 45 hurdat_epa main 234 234 O________OO___ hurdat_epa EP181970 20.8000 -109.800 TS 45 0 20.8000 -109.800 TC 45 20.8000 -109.800 2 6 263
1970306N15252 1970 142 EP MM SELMA 1970-11-05 15:00:00 TS 20.7526 -110.101 main 235 235 P________PP___ EP181970 20.7500 -110.108 TS 45 0 20.7500 -110.108 TC 45 20.7631 -110.077 2 6 260
1970306N15252 1970 142 EP MM SELMA 1970-11-05 18:00:00 TS 20.7010 -110.392 45 hurdat_epa main 249 249 O________OP___ hurdat_epa EP181970 20.7000 -110.400 TS 45 0 20.7000 -110.400 TC 45 20.7050 -110.359 2 5 260
1970306N15252 1970 142 EP MM SELMA 1970-11-05 21:00:00 TS 20.6638 -110.653 main 256 256 P________PP___ EP181970 20.6624 -110.658 TS 45 0 20.6624 -110.658 TC 45 20.6694 -110.636 2 5 270
1970306N15252 1970 142 EP MM SELMA 1970-11-06 00:00:00 TS 20.7000 -110.900 45 hurdat_epa main 262 250 O________OO___ hurdat_epa EP181970 20.7000 -110.900 TS 45 0 20.7000 -110.900 TC 45 20.7000 -110.900 2 5 293
1970306N15252 1970 142 EP MM SELMA 1970-11-06 03:00:00 TS 20.8631 -111.159 main 255 247 P________PP___ EP181970 20.8625 -111.157 TS 42 0 20.8625 -111.157 TC 42 20.8653 -111.163 2 6 310
1970306N15252 1970 142 EP MM SELMA 1970-11-06 06:00:00 TS 21.0995 -111.402 40 hurdat_epa main 247 236 O________OP___ hurdat_epa EP181970 21.1000 -111.400 TS 40 0 21.1000 -111.400 TC 40 21.0975 -111.409 2 7 319
1970306N15252 1970 142 EP MM SELMA 1970-11-06 09:00:00 TS 21.3572 -111.623 main 235 234 P________PP___ EP181970 21.3575 -111.622 TS 37 0 21.3575 -111.622 TC 37 21.3560 -111.626 2 6 323
1970306N15252 1970 142 EP MM SELMA 1970-11-06 12:00:00 TS 21.6000 -111.800 35 hurdat_epa main 235 228 O________OO___ hurdat_epa EP181970 21.6000 -111.800 TS 35 0 21.6000 -111.800 TC 35 21.6000 -111.800 6 5 326
1970306N15252 1970 142 EP MM SELMA 1970-11-06 15:00:00 TS 21.7671 -111.926 main 230 230 P________PP___ EP181970 21.7650 -111.923 TS 32 -1 21.7650 -111.923 TC 32 21.7755 -111.939 6 4 328
1970306N15252 1970 142 EP MM SELMA 1970-11-06 18:00:00 TS 21.9060 -112.007 30 hurdat_epa main 233 228 O________OP___ hurdat_epa EP181970 21.9000 -112.000 TD 30 -1 21.9000 -112.000 TC 30 21.9298 -112.033 6 3 334
1970306N15252 1970 142 EP MM SELMA 1970-11-06 21:00:00 TS 22.0538 -112.075 main 233 227 P________PP___ EP181970 22.0500 -112.072 TD 27 -1 22.0500 -112.072 TC 27 22.0693 -112.085 6 3 344
1970306N15252 1970 142 EP MM SELMA 1970-11-07 00:00:00 TS 22.2000 -112.100 25 hurdat_epa main 227 219 O________OO___ hurdat_epa EP181970 22.2000 -112.100 TD 25 -1 22.2000 -112.100 TC 25 22.2000 -112.100 6 3 0
1970306N15252 1970 142 EP MM SELMA 1970-11-07 03:00:00 TS 22.3532 -112.072 main 211 196 P________PP___ EP181970 22.3575 -112.065 TD 25 -1 22.3575 -112.065 TC 25 22.3362 -112.098 6 3 15
1970306N15252 1970 142 EP MM SELMA 1970-11-07 06:00:00 TS 22.4930 -112.012 25 hurdat_epa main 196 188 O________OP___ hurdat_epa EP181970 22.5000 -112.000 TD 25 -1 22.5000 -112.000 TC 25 22.4649 -112.060 6 3 21
1970306N15252 1970 142 EP MM SELMA 1970-11-07 09:00:00 TS 22.6032 -111.964 main 188 173 P________PP___ EP181970 22.6075 -111.957 TD 25 -1 22.6075 -111.957 TC 25 22.5862 -111.992 6 2 26
1970306N15252 1970 142 EP MM SELMA 1970-11-07 12:00:00 TS 22.7000 -111.900 25 hurdat_epa main 173 158 O________OO___ hurdat_epa EP181970 22.7000 -111.900 TD 25 -1 22.7000 -111.900 TC 25 22.7000 -111.900 6 2 34
1970306N15252 1970 142 EP MM SELMA 1970-11-07 15:00:00 TS 22.8079 -111.814 main 158 143 P________PP___ EP181970 22.8000 -111.815 TD 25 -1 22.8000 -111.815 TC 25 22.8396 -111.809 6 3 41
1970306N15252 1970 142 EP MM SELMA 1970-11-07 18:00:00 TS 22.9135 -111.699 25 hurdat_epa main 143 128 O________OP___ hurdat_epa EP181970 22.9000 -111.700 TD 25 -1 22.9000 -111.700 TC 25 22.9674 -111.695 6 3 46
1970306N15252 1970 142 EP MM SELMA 1970-11-07 21:00:00 TS 23.0303 -111.564 main 128 105 P________PP___ EP181970 23.0225 -111.565 TD 25 -1 23.0225 -111.565 TC 25 23.0615 -111.559 6 3 56
1970306N15252 1970 142 EP MM SELMA 1970-11-08 00:00:00 TS 23.1000 -111.400 25 hurdat_epa main 105 90 O________OO___ hurdat_epa EP181970 23.1000 -111.400 TD 25 -1 23.1000 -111.400 TC 25 23.1000 -111.400 6 3 81
1970306N15252 1970 142 EP MM SELMA 1970-11-08 03:00:00 TS 23.0836 -111.210 main 90 84 P________PP___ EP181970 23.0875 -111.207 TD 25 -1 23.0875 -111.207 TC 25 23.0680 -111.219 6 4 106
1970306N15252 1970 142 EP MM SELMA 1970-11-08 06:00:00 TS 22.9956 -111.004 25 hurdat_epa main 88 79 O________OP___ hurdat_epa EP181970 23.0000 -111.000 TD 25 -1 23.0000 -111.000 TC 25 22.9778 -111.022 6 4 121
1970306N15252 1970 142 EP MM SELMA 1970-11-08 09:00:00 TS 22.8598 -110.801 main 79 65 P________PP___ EP181970 22.8625 -110.797 TD 25 -1 22.8625 -110.797 TC 25 22.8487 -110.813 6 5 128
1970306N15252 1970 142 EP MM SELMA 1970-11-08 12:00:00 TS 22.7000 -110.600 25 hurdat_epa main 65 O________OO___ hurdat_epa EP181970 22.7000 -110.600 TD 25 -1 22.7000 -110.600 TC 25 22.7000 -110.600 6 5 131

About IBTrACS Database

This database is a web-friendly format of International Best Track Archive for Climate Stewardship (IBTrACS), a global best track data archive curated by NOAA dating back to 1842.

Updated: 2021-11-26